sensor_id;sensor_type;location;lat;lon;timestamp;pressure;altitude;pressure_sealevel;temperature;humidity
64230;BME280;50547;49.498;0.092;2023-04-20T00:00:28;1015.80;;;11.17;60.81
64230;BME280;50547;49.498;0.092;2023-04-20T00:02:59;1015.88;;;11.08;60.94
64230;BME280;50547;49.498;0.092;2023-04-20T00:05:28;1015.98;;;11.05;60.93
64230;BME280;50547;49.498;0.092;2023-04-20T00:07:57;1015.88;;;11.04;60.82
64230;BME280;50547;49.498;0.092;2023-04-20T00:10:27;1015.96;;;10.95;61.19
64230;BME280;50547;49.498;0.092;2023-04-20T00:12:56;1015.94;;;10.93;61.46
64230;BME280;50547;49.498;0.092;2023-04-20T00:15:25;1015.94;;;10.84;61.54
64230;BME280;50547;49.498;0.092;2023-04-20T00:17:54;1015.92;;;10.82;61.28
64230;BME280;50547;49.498;0.092;2023-04-20T00:20:23;1015.78;;;10.71;61.52
64230;BME280;50547;49.498;0.092;2023-04-20T00:22:52;1015.70;;;10.75;61.39
64230;BME280;50547;49.498;0.092;2023-04-20T00:25:21;1015.78;;;10.79;60.81
64230;BME280;50547;49.498;0.092;2023-04-20T00:27:50;1015.80;;;10.71;61.03
64230;BME280;50547;49.498;0.092;2023-04-20T00:30:19;1015.80;;;10.69;61.07
64230;BME280;50547;49.498;0.092;2023-04-20T00:32:48;1015.82;;;10.64;60.86
64230;BME280;50547;49.498;0.092;2023-04-20T00:35:17;1015.84;;;10.61;60.85
64230;BME280;50547;49.498;0.092;2023-04-20T00:37:46;1015.62;;;10.69;60.51
64230;BME280;50547;49.498;0.092;2023-04-20T00:40:15;1015.56;;;10.60;60.47
64230;BME280;50547;49.498;0.092;2023-04-20T00:42:44;1015.66;;;10.63;60.33
64230;BME280;50547;49.498;0.092;2023-04-20T00:45:13;1015.58;;;10.48;60.75
64230;BME280;50547;49.498;0.092;2023-04-20T00:47:42;1015.48;;;10.53;59.97
64230;BME280;50547;49.498;0.092;2023-04-20T00:50:11;1015.44;;;10.47;59.74
64230;BME280;50547;49.498;0.092;2023-04-20T00:52:40;1015.40;;;10.43;60.00
64230;BME280;50547;49.498;0.092;2023-04-20T00:55:10;1015.46;;;10.37;60.39
64230;BME280;50547;49.498;0.092;2023-04-20T00:57:40;1015.58;;;10.29;60.86
64230;BME280;50547;49.498;0.092;2023-04-20T01:00:10;1015.42;;;10.24;60.44
64230;BME280;50547;49.498;0.092;2023-04-20T01:02:39;1015.48;;;10.30;59.86
64230;BME280;50547;49.498;0.092;2023-04-20T01:05:08;1015.50;;;10.28;59.75
64230;BME280;50547;49.498;0.092;2023-04-20T01:07:37;1015.40;;;10.19;60.14
64230;BME280;50547;49.498;0.092;2023-04-20T01:10:03;1015.46;;;10.28;59.58
64230;BME280;50547;49.498;0.092;2023-04-20T01:12:33;1015.42;;;10.22;59.69
64230;BME280;50547;49.498;0.092;2023-04-20T01:15:03;1015.40;;;10.23;59.41
64230;BME280;50547;49.498;0.092;2023-04-20T01:17:33;1015.34;;;10.13;60.02
64230;BME280;50547;49.498;0.092;2023-04-20T01:20:03;1015.31;;;10.10;59.93
64230;BME280;50547;49.498;0.092;2023-04-20T01:22:32;1015.21;;;10.09;59.61
64230;BME280;50547;49.498;0.092;2023-04-20T01:25:01;1015.21;;;10.09;59.54
64230;BME280;50547;49.498;0.092;2023-04-20T01:27:30;1015.15;;;10.05;59.21
64230;BME280;50547;49.498;0.092;2023-04-20T01:29:59;1015.15;;;10.07;59.20
64230;BME280;50547;49.498;0.092;2023-04-20T01:32:28;1015.17;;;10.04;59.09
64230;BME280;50547;49.498;0.092;2023-04-20T01:34:59;1015.11;;;9.88;59.81
64230;BME280;50547;49.498;0.092;2023-04-20T01:37:28;1015.11;;;9.90;59.55
64230;BME280;50547;49.498;0.092;2023-04-20T01:39:54;1015.03;;;9.90;59.54
64230;BME280;50547;49.498;0.092;2023-04-20T01:42:23;1015.05;;;9.90;59.45
64230;BME280;50547;49.498;0.092;2023-04-20T01:44:52;1015.03;;;9.89;59.38
64230;BME280;50547;49.498;0.092;2023-04-20T01:47:18;1015.03;;;9.87;59.53
64230;BME280;50547;49.498;0.092;2023-04-20T01:49:47;1014.97;;;9.83;59.73
64230;BME280;50547;49.498;0.092;2023-04-20T01:52:16;1014.97;;;9.78;59.96
64230;BME280;50547;49.498;0.092;2023-04-20T01:54:45;1014.97;;;9.74;60.25
64230;BME280;50547;49.498;0.092;2023-04-20T01:57:14;1014.97;;;9.65;60.66
64230;BME280;50547;49.498;0.092;2023-04-20T01:59:43;1014.99;;;9.76;60.07
64230;BME280;50547;49.498;0.092;2023-04-20T02:02:12;1015.01;;;9.71;60.53
64230;BME280;50547;49.498;0.092;2023-04-20T02:04:38;1015.01;;;9.64;60.92
64230;BME280;50547;49.498;0.092;2023-04-20T02:07:07;1014.95;;;9.61;61.17
64230;BME280;50547;49.498;0.092;2023-04-20T02:09:36;1015.01;;;9.56;61.59
64230;BME280;50547;49.498;0.092;2023-04-20T02:12:05;1015.07;;;9.56;61.96
64230;BME280;50547;49.498;0.092;2023-04-20T02:14:34;1015.01;;;9.54;62.02
64230;BME280;50547;49.498;0.092;2023-04-20T02:17:04;1014.99;;;9.50;62.60
64230;BME280;50547;49.498;0.092;2023-04-20T02:19:33;1014.85;;;9.52;62.31
64230;BME280;50547;49.498;0.092;2023-04-20T02:21:58;1014.97;;;9.49;62.36
64230;BME280;50547;49.498;0.092;2023-04-20T02:24:27;1014.97;;;9.55;62.17
64230;BME280;50547;49.498;0.092;2023-04-20T02:26:56;1014.99;;;9.53;62.25
64230;BME280;50547;49.498;0.092;2023-04-20T02:29:25;1014.97;;;9.53;62.07
64230;BME280;50547;49.498;0.092;2023-04-20T02:31:54;1014.99;;;9.45;62.69
64230;BME280;50547;49.498;0.092;2023-04-20T02:34:23;1015.05;;;9.50;62.63
64230;BME280;50547;49.498;0.092;2023-04-20T02:36:52;1014.97;;;9.40;63.45
64230;BME280;50547;49.498;0.092;2023-04-20T02:39:21;1014.84;;;9.40;62.83
64230;BME280;50547;49.498;0.092;2023-04-20T02:41:50;1014.99;;;9.35;63.24
64230;BME280;50547;49.498;0.092;2023-04-20T02:44:20;1014.89;;;9.34;63.33
64230;BME280;50547;49.498;0.092;2023-04-20T02:46:49;1014.89;;;9.31;63.18
64230;BME280;50547;49.498;0.092;2023-04-20T02:49:18;1014.84;;;9.28;63.50
64230;BME280;50547;49.498;0.092;2023-04-20T02:51:47;1014.84;;;9.23;63.53
64230;BME280;50547;49.498;0.092;2023-04-20T02:54:16;1014.84;;;9.27;63.24
64230;BME280;50547;49.498;0.092;2023-04-20T02:56:45;1014.72;;;9.28;63.00
64230;BME280;50547;49.498;0.092;2023-04-20T02:59:14;1014.84;;;9.19;63.71
64230;BME280;50547;49.498;0.092;2023-04-20T03:01:43;1014.76;;;9.25;63.24
64230;BME280;50547;49.498;0.092;2023-04-20T03:04:12;1014.74;;;9.28;62.90
64230;BME280;50547;49.498;0.092;2023-04-20T03:06:41;1014.80;;;9.22;63.33
64230;BME280;50547;49.498;0.092;2023-04-20T03:09:10;1014.78;;;9.27;63.17
64230;BME280;50547;49.498;0.092;2023-04-20T03:11:39;1014.56;;;9.26;62.99
64230;BME280;50547;49.498;0.092;2023-04-20T03:14:08;1014.72;;;9.16;63.52
64230;BME280;50547;49.498;0.092;2023-04-20T03:16:37;1014.78;;;9.09;63.96
64230;BME280;50547;49.498;0.092;2023-04-20T03:19:07;1014.74;;;9.18;63.34
64230;BME280;50547;49.498;0.092;2023-04-20T03:21:36;1014.78;;;9.15;63.67
64230;BME280;50547;49.498;0.092;2023-04-20T03:24:05;1014.84;;;9.12;63.50
64230;BME280;50547;49.498;0.092;2023-04-20T03:26:34;1014.78;;;9.14;63.44
64230;BME280;50547;49.498;0.092;2023-04-20T03:29:03;1014.80;;;9.18;63.06
64230;BME280;50547;49.498;0.092;2023-04-20T03:31:32;1014.76;;;9.12;63.23
64230;BME280;50547;49.498;0.092;2023-04-20T03:34:01;1014.76;;;9.07;63.29
64230;BME280;50547;49.498;0.092;2023-04-20T03:36:30;1014.80;;;9.10;63.14
64230;BME280;50547;49.498;0.092;2023-04-20T03:38:59;1014.72;;;9.15;62.71
64230;BME280;50547;49.498;0.092;2023-04-20T03:41:29;1014.84;;;9.15;62.48
64230;BME280;50547;49.498;0.092;2023-04-20T03:43:58;1014.89;;;9.21;61.81
64230;BME280;50547;49.498;0.092;2023-04-20T03:46:27;1014.85;;;9.11;62.21
64230;BME280;50547;49.498;0.092;2023-04-20T03:48:56;1014.84;;;9.11;62.10
64230;BME280;50547;49.498;0.092;2023-04-20T03:51:25;1014.80;;;9.01;62.10
64230;BME280;50547;49.498;0.092;2023-04-20T03:53:54;1014.68;;;9.01;61.76
64230;BME280;50547;49.498;0.092;2023-04-20T03:56:23;1014.72;;;9.08;61.76
64230;BME280;50547;49.498;0.092;2023-04-20T03:58:52;1014.64;;;8.99;62.14
64230;BME280;50547;49.498;0.092;2023-04-20T04:01:21;1014.72;;;8.93;62.40
64230;BME280;50547;49.498;0.092;2023-04-20T04:03:50;1014.76;;;8.94;61.99
64230;BME280;50547;49.498;0.092;2023-04-20T04:06:19;1014.74;;;8.84;62.31
64230;BME280;50547;49.498;0.092;2023-04-20T04:08:48;1014.76;;;8.73;62.84
64230;BME280;50547;49.498;0.092;2023-04-20T04:11:17;1014.76;;;8.90;61.84
64230;BME280;50547;49.498;0.092;2023-04-20T04:13:46;1014.76;;;9.04;61.67
64230;BME280;50547;49.498;0.092;2023-04-20T04:16:15;1014.78;;;9.03;61.42
64230;BME280;50547;49.498;0.092;2023-04-20T04:18:44;1014.87;;;8.94;61.84
64230;BME280;50547;49.498;0.092;2023-04-20T04:21:13;1014.84;;;9.02;61.60
64230;BME280;50547;49.498;0.092;2023-04-20T04:23:42;1014.89;;;8.94;61.49
64230;BME280;50547;49.498;0.092;2023-04-20T04:26:11;1014.76;;;8.78;61.85
64230;BME280;50547;49.498;0.092;2023-04-20T04:28:40;1014.80;;;8.71;62.40
64230;BME280;50547;49.498;0.092;2023-04-20T04:31:09;1014.68;;;8.61;62.36
64230;BME280;50547;49.498;0.092;2023-04-20T04:33:38;1014.74;;;8.50;62.32
64230;BME280;50547;49.498;0.092;2023-04-20T04:36:07;1014.84;;;8.66;61.81
64230;BME280;50547;49.498;0.092;2023-04-20T04:38:36;1014.89;;;8.60;61.51
64230;BME280;50547;49.498;0.092;2023-04-20T04:41:05;1014.82;;;8.70;61.47
64230;BME280;50547;49.498;0.092;2023-04-20T04:43:34;1014.80;;;8.72;61.13
64230;BME280;50547;49.498;0.092;2023-04-20T04:46:05;1014.89;;;8.75;61.10
64230;BME280;50547;49.498;0.092;2023-04-20T04:48:34;1014.93;;;8.75;61.24
64230;BME280;50547;49.498;0.092;2023-04-20T04:51:03;1014.99;;;8.70;61.37
64230;BME280;50547;49.498;0.092;2023-04-20T04:53:33;1014.95;;;8.62;62.03
64230;BME280;50547;49.498;0.092;2023-04-20T04:56:03;1014.97;;;8.63;61.75
64230;BME280;50547;49.498;0.092;2023-04-20T04:58:32;1015.01;;;8.54;61.96
64230;BME280;50547;49.498;0.092;2023-04-20T05:01:01;1015.13;;;8.57;62.00
64230;BME280;50547;49.498;0.092;2023-04-20T05:03:30;1015.05;;;8.33;62.95
64230;BME280;50547;49.498;0.092;2023-04-20T05:05:59;1014.93;;;8.32;62.59
64230;BME280;50547;49.498;0.092;2023-04-20T05:08:28;1014.99;;;8.25;62.48
64230;BME280;50547;49.498;0.092;2023-04-20T05:10:57;1015.03;;;8.18;62.79
64230;BME280;50547;49.498;0.092;2023-04-20T05:13:26;1015.07;;;8.18;62.41
64230;BME280;50547;49.498;0.092;2023-04-20T05:15:55;1015.09;;;8.19;62.51
64230;BME280;50547;49.498;0.092;2023-04-20T05:18:24;1015.23;;;8.31;61.93
64230;BME280;50547;49.498;0.092;2023-04-20T05:20:53;1015.19;;;8.33;61.84
64230;BME280;50547;49.498;0.092;2023-04-20T05:23:22;1015.19;;;8.33;62.13
64230;BME280;50547;49.498;0.092;2023-04-20T05:25:51;1015.15;;;8.17;62.78
64230;BME280;50547;49.498;0.092;2023-04-20T05:28:20;1015.19;;;8.28;62.35
64230;BME280;50547;49.498;0.092;2023-04-20T05:30:49;1015.13;;;8.19;62.14
64230;BME280;50547;49.498;0.092;2023-04-20T05:33:18;1015.29;;;8.16;62.25
64230;BME280;50547;49.498;0.092;2023-04-20T05:35:47;1015.29;;;8.21;61.87
64230;BME280;50547;49.498;0.092;2023-04-20T05:38:16;1015.31;;;8.31;61.63
64230;BME280;50547;49.498;0.092;2023-04-20T05:40:45;1015.23;;;8.27;61.69
64230;BME280;50547;49.498;0.092;2023-04-20T05:43:14;1015.31;;;8.47;60.82
64230;BME280;50547;49.498;0.092;2023-04-20T05:45:43;1015.31;;;8.37;61.23
64230;BME280;50547;49.498;0.092;2023-04-20T05:48:12;1015.29;;;8.32;61.33
64230;BME280;50547;49.498;0.092;2023-04-20T05:50:41;1015.31;;;8.30;61.50
64230;BME280;50547;49.498;0.092;2023-04-20T05:53:10;1015.40;;;8.46;60.73
64230;BME280;50547;49.498;0.092;2023-04-20T05:55:39;1015.46;;;8.72;59.86
64230;BME280;50547;49.498;0.092;2023-04-20T05:58:08;1015.54;;;8.88;58.82
64230;BME280;50547;49.498;0.092;2023-04-20T06:00:37;1015.64;;;8.83;59.56
64230;BME280;50547;49.498;0.092;2023-04-20T06:03:06;1015.62;;;9.26;57.67
64230;BME280;50547;49.498;0.092;2023-04-20T06:05:35;1015.62;;;9.31;57.84
64230;BME280;50547;49.498;0.092;2023-04-20T06:08:04;1015.58;;;9.34;57.79
64230;BME280;50547;49.498;0.092;2023-04-20T06:10:33;1015.66;;;9.34;58.10
64230;BME280;50547;49.498;0.092;2023-04-20T06:13:02;1015.64;;;9.33;57.73
64230;BME280;50547;49.498;0.092;2023-04-20T06:15:31;1015.70;;;9.27;58.38
64230;BME280;50547;49.498;0.092;2023-04-20T06:18:00;1015.62;;;9.49;57.65
64230;BME280;50547;49.498;0.092;2023-04-20T06:20:29;1015.62;;;9.55;56.90
64230;BME280;50547;49.498;0.092;2023-04-20T06:22:58;1015.70;;;9.58;56.93
64230;BME280;50547;49.498;0.092;2023-04-20T06:25:27;1015.62;;;9.77;56.44
64230;BME280;50547;49.498;0.092;2023-04-20T06:27:56;1015.66;;;9.85;56.08
64230;BME280;50547;49.498;0.092;2023-04-20T06:30:25;1015.66;;;10.03;55.52
64230;BME280;50547;49.498;0.092;2023-04-20T06:32:54;1015.60;;;10.03;55.50
64230;BME280;50547;49.498;0.092;2023-04-20T06:35:23;1015.68;;;10.00;55.53
64230;BME280;50547;49.498;0.092;2023-04-20T06:37:52;1015.62;;;9.97;55.86
64230;BME280;50547;49.498;0.092;2023-04-20T06:40:21;1015.70;;;10.07;55.68
64230;BME280;50547;49.498;0.092;2023-04-20T06:42:50;1015.78;;;10.20;55.04
64230;BME280;50547;49.498;0.092;2023-04-20T06:45:19;1015.68;;;10.32;54.87
64230;BME280;50547;49.498;0.092;2023-04-20T06:47:48;1015.80;;;10.47;53.87
64230;BME280;50547;49.498;0.092;2023-04-20T06:50:17;1015.78;;;10.53;54.36
64230;BME280;50547;49.498;0.092;2023-04-20T06:52:46;1015.82;;;10.32;54.88
64230;BME280;50547;49.498;0.092;2023-04-20T06:55:16;1015.84;;;10.63;53.78
64230;BME280;50547;49.498;0.092;2023-04-20T06:57:45;1015.86;;;10.66;53.98
64230;BME280;50547;49.498;0.092;2023-04-20T07:00:15;1015.80;;;10.59;54.14
64230;BME280;50547;49.498;0.092;2023-04-20T07:02:50;1015.84;;;10.40;55.14
64230;BME280;50547;49.498;0.092;2023-04-20T07:05:19;1015.84;;;10.61;54.34
64230;BME280;50547;49.498;0.092;2023-04-20T07:07:49;1015.70;;;10.73;54.24
64230;BME280;50547;49.498;0.092;2023-04-20T07:10:18;1015.66;;;11.26;51.97
64230;BME280;50547;49.498;0.092;2023-04-20T07:12:47;1015.68;;;11.17;52.27
64230;BME280;50547;49.498;0.092;2023-04-20T07:15:16;1015.62;;;11.32;51.33
64230;BME280;50547;49.498;0.092;2023-04-20T07:17:45;1015.62;;;11.29;51.92
64230;BME280;50547;49.498;0.092;2023-04-20T07:20:14;1015.64;;;11.53;50.95
64230;BME280;50547;49.498;0.092;2023-04-20T07:22:43;1015.70;;;11.79;50.64
64230;BME280;50547;49.498;0.092;2023-04-20T07:25:12;1015.70;;;11.85;50.77
64230;BME280;50547;49.498;0.092;2023-04-20T07:27:41;1015.64;;;12.08;49.97
64230;BME280;50547;49.498;0.092;2023-04-20T07:30:11;1015.66;;;12.28;49.65
64230;BME280;50547;49.498;0.092;2023-04-20T07:32:40;1015.78;;;12.43;48.87
64230;BME280;50547;49.498;0.092;2023-04-20T07:35:10;1015.68;;;12.64;48.53
64230;BME280;50547;49.498;0.092;2023-04-20T07:37:39;1015.78;;;12.46;48.77
64230;BME280;50547;49.498;0.092;2023-04-20T07:40:08;1015.78;;;12.34;49.54
64230;BME280;50547;49.498;0.092;2023-04-20T07:42:38;1015.80;;;12.07;50.73
64230;BME280;50547;49.498;0.092;2023-04-20T07:45:08;1015.68;;;12.06;50.27
64230;BME280;50547;49.498;0.092;2023-04-20T07:47:38;1015.64;;;11.92;50.29
64230;BME280;50547;49.498;0.092;2023-04-20T07:50:08;1015.80;;;11.80;50.95
64230;BME280;50547;49.498;0.092;2023-04-20T07:52:37;1015.84;;;12.02;50.03
64230;BME280;50547;49.498;0.092;2023-04-20T07:55:07;1015.66;;;12.30;49.18
64230;BME280;50547;49.498;0.092;2023-04-20T07:57:36;1015.88;;;12.42;49.12
64230;BME280;50547;49.498;0.092;2023-04-20T08:00:06;1015.82;;;12.43;48.83
64230;BME280;50547;49.498;0.092;2023-04-20T08:02:32;1015.78;;;13.14;47.15
64230;BME280;50547;49.498;0.092;2023-04-20T08:05:01;1015.80;;;13.48;46.54
64230;BME280;50547;49.498;0.092;2023-04-20T08:07:30;1015.80;;;13.32;47.19
64230;BME280;50547;49.498;0.092;2023-04-20T08:10:00;1015.80;;;13.45;47.04
64230;BME280;50547;49.498;0.092;2023-04-20T08:12:29;1015.80;;;13.39;46.70
64230;BME280;50547;49.498;0.092;2023-04-20T08:14:58;1015.82;;;13.47;46.75
64230;BME280;50547;49.498;0.092;2023-04-20T08:17:27;1015.84;;;13.04;48.09
64230;BME280;50547;49.498;0.092;2023-04-20T08:19:56;1015.82;;;13.31;46.91
64230;BME280;50547;49.498;0.092;2023-04-20T08:22:26;1015.80;;;13.13;47.29
64230;BME280;50547;49.498;0.092;2023-04-20T08:24:55;1015.86;;;13.06;47.70
64230;BME280;50547;49.498;0.092;2023-04-20T08:27:24;1015.66;;;13.23;46.94
64230;BME280;50547;49.498;0.092;2023-04-20T08:29:53;1015.80;;;13.56;45.42
64230;BME280;50547;49.498;0.092;2023-04-20T08:32:22;1015.64;;;13.84;44.35
64230;BME280;50547;49.498;0.092;2023-04-20T08:34:52;1015.68;;;13.69;44.53
64230;BME280;50547;49.498;0.092;2023-04-20T08:37:26;1015.58;;;13.44;44.95
64230;BME280;50547;49.498;0.092;2023-04-20T08:39:55;1015.80;;;13.69;44.52
64230;BME280;50547;49.498;0.092;2023-04-20T08:42:24;1015.78;;;13.69;44.60
64230;BME280;50547;49.498;0.092;2023-04-20T08:44:52;1015.82;;;13.82;44.88
64230;BME280;50547;49.498;0.092;2023-04-20T08:47:22;1015.86;;;14.20;44.10
64230;BME280;50547;49.498;0.092;2023-04-20T08:49:52;1015.84;;;14.66;42.89
64230;BME280;50547;49.498;0.092;2023-04-20T08:52:22;1015.78;;;14.53;43.90
64230;BME280;50547;49.498;0.092;2023-04-20T08:54:51;1015.78;;;14.85;43.45
64230;BME280;50547;49.498;0.092;2023-04-20T08:57:20;1015.82;;;13.96;45.68
64230;BME280;50547;49.498;0.092;2023-04-20T08:59:49;1015.88;;;14.15;45.22
64230;BME280;50547;49.498;0.092;2023-04-20T09:02:18;1015.84;;;14.33;44.14
64230;BME280;50547;49.498;0.092;2023-04-20T09:04:48;1015.92;;;14.65;43.47
64230;BME280;50547;49.498;0.092;2023-04-20T09:07:18;1015.84;;;14.53;43.79
64230;BME280;50547;49.498;0.092;2023-04-20T09:09:57;1015.82;;;14.53;42.79
64230;BME280;50547;49.498;0.092;2023-04-20T09:12:27;1015.82;;;14.51;42.61
64230;BME280;50547;49.498;0.092;2023-04-20T09:14:56;1015.66;;;14.53;43.04
64230;BME280;50547;49.498;0.092;2023-04-20T09:17:31;1015.68;;;13.85;43.93
64230;BME280;50547;49.498;0.092;2023-04-20T09:20:02;1015.66;;;13.84;43.07
64230;BME280;50547;49.498;0.092;2023-04-20T09:22:33;1015.58;;;14.07;43.21
64230;BME280;50547;49.498;0.092;2023-04-20T09:25:12;1015.64;;;14.32;42.10
64230;BME280;50547;49.498;0.092;2023-04-20T09:27:41;1015.54;;;13.79;43.86
64230;BME280;50547;49.498;0.092;2023-04-20T09:30:11;1015.60;;;14.07;43.73
64230;BME280;50547;49.498;0.092;2023-04-20T09:32:40;1015.62;;;15.02;41.11
64230;BME280;50547;49.498;0.092;2023-04-20T09:35:09;1015.58;;;15.56;39.44
64230;BME280;50547;49.498;0.092;2023-04-20T09:37:46;1015.54;;;16.01;39.29
64230;BME280;50547;49.498;0.092;2023-04-20T09:40:16;1015.52;;;15.72;39.90
64230;BME280;50547;49.498;0.092;2023-04-20T09:42:46;1015.54;;;16.14;39.24
64230;BME280;50547;49.498;0.092;2023-04-20T09:45:16;1015.42;;;15.30;39.61
64230;BME280;50547;49.498;0.092;2023-04-20T09:47:46;1015.70;;;14.68;40.95
64230;BME280;50547;49.498;0.092;2023-04-20T09:50:15;1015.54;;;14.44;40.52
64230;BME280;50547;49.498;0.092;2023-04-20T09:52:44;1015.42;;;14.79;39.20
64230;BME280;50547;49.498;0.092;2023-04-20T09:55:14;1015.50;;;14.96;38.56
64230;BME280;50547;49.498;0.092;2023-04-20T09:57:43;1015.44;;;14.80;39.10
64230;BME280;50547;49.498;0.092;2023-04-20T10:00:13;1015.32;;;14.68;39.22
64230;BME280;50547;49.498;0.092;2023-04-20T10:02:45;1015.25;;;14.41;40.32
64230;BME280;50547;49.498;0.092;2023-04-20T10:05:14;1015.34;;;14.74;39.36
64230;BME280;50547;49.498;0.092;2023-04-20T10:07:40;1015.34;;;14.76;39.39
64230;BME280;50547;49.498;0.092;2023-04-20T10:10:10;1015.40;;;14.49;39.72
64230;BME280;50547;49.498;0.092;2023-04-20T10:12:48;1015.31;;;14.13;40.41
64230;BME280;50547;49.498;0.092;2023-04-20T10:15:18;1015.34;;;13.87;41.99
64230;BME280;50547;49.498;0.092;2023-04-20T10:17:47;1015.29;;;14.18;41.68
64230;BME280;50547;49.498;0.092;2023-04-20T10:20:19;1015.27;;;14.94;40.59
64230;BME280;50547;49.498;0.092;2023-04-20T10:22:50;1015.15;;;14.62;41.95
64230;BME280;50547;49.498;0.092;2023-04-20T10:25:18;1015.23;;;14.29;43.40
64230;BME280;50547;49.498;0.092;2023-04-20T10:27:52;1015.29;;;14.78;42.37
64230;BME280;50547;49.498;0.092;2023-04-20T10:30:22;1015.23;;;14.82;41.86
64230;BME280;50547;49.498;0.092;2023-04-20T10:32:48;1015.19;;;14.55;42.52
64230;BME280;50547;49.498;0.092;2023-04-20T10:35:17;1015.17;;;14.77;41.99
64230;BME280;50547;49.498;0.092;2023-04-20T10:37:47;1015.15;;;14.75;41.12
64230;BME280;50547;49.498;0.092;2023-04-20T10:40:24;1015.32;;;14.33;42.96
64230;BME280;50547;49.498;0.092;2023-04-20T10:42:53;1015.11;;;14.43;42.56
64230;BME280;50547;49.498;0.092;2023-04-20T10:45:32;1015.09;;;15.48;39.77
64230;BME280;50547;49.498;0.092;2023-04-20T10:48:07;1015.15;;;15.97;38.91
64230;BME280;50547;49.498;0.092;2023-04-20T10:50:36;1015.15;;;15.47;40.51
64230;BME280;50547;49.498;0.092;2023-04-20T10:53:16;1015.13;;;14.56;44.33
64230;BME280;50547;49.498;0.092;2023-04-20T10:55:45;1015.11;;;14.39;41.66
64230;BME280;50547;49.498;0.092;2023-04-20T10:58:22;1015.01;;;14.75;40.51
64230;BME280;50547;49.498;0.092;2023-04-20T11:00:59;1015.23;;;14.82;40.63
64230;BME280;50547;49.498;0.092;2023-04-20T11:03:31;1015.23;;;15.02;40.45
64230;BME280;50547;49.498;0.092;2023-04-20T11:06:00;1015.09;;;14.66;42.39
64230;BME280;50547;49.498;0.092;2023-04-20T11:08:39;1015.17;;;14.64;41.73
64230;BME280;50547;49.498;0.092;2023-04-20T11:11:25;1015.17;;;14.48;42.10
64230;BME280;50547;49.498;0.092;2023-04-20T11:14:05;1015.05;;;14.32;43.45
64230;BME280;50547;49.498;0.092;2023-04-20T11:16:35;1014.93;;;14.21;44.18
64230;BME280;50547;49.498;0.092;2023-04-20T11:19:04;1015.09;;;14.11;44.95
64230;BME280;50547;49.498;0.092;2023-04-20T11:21:36;1015.05;;;14.20;43.91
64230;BME280;50547;49.498;0.092;2023-04-20T11:24:16;1014.99;;;14.35;44.01
64230;BME280;50547;49.498;0.092;2023-04-20T11:26:46;1015.05;;;14.08;45.04
64230;BME280;50547;49.498;0.092;2023-04-20T11:29:26;1014.97;;;13.97;45.94
64230;BME280;50547;49.498;0.092;2023-04-20T11:31:56;1015.05;;;14.03;46.85
64230;BME280;50547;49.498;0.092;2023-04-20T11:34:25;1014.91;;;13.46;49.69
64230;BME280;50547;49.498;0.092;2023-04-20T11:37:45;1014.93;;;13.19;50.55
64230;BME280;50547;49.498;0.092;2023-04-20T11:40:14;1014.99;;;12.81;52.22
64230;BME280;50547;49.498;0.092;2023-04-20T11:42:43;1015.01;;;13.30;51.15
64230;BME280;50547;49.498;0.092;2023-04-20T11:45:12;1014.87;;;13.44;49.24
64230;BME280;50547;49.498;0.092;2023-04-20T11:47:41;1014.76;;;13.44;50.45
64230;BME280;50547;49.498;0.092;2023-04-20T11:50:10;1014.87;;;13.32;52.14
64230;BME280;50547;49.498;0.092;2023-04-20T11:52:39;1014.70;;;13.69;49.60
64230;BME280;50547;49.498;0.092;2023-04-20T11:55:08;1014.54;;;13.95;48.51
64230;BME280;50547;49.498;0.092;2023-04-20T11:57:37;1014.70;;;13.37;51.43
64230;BME280;50547;49.498;0.092;2023-04-20T12:00:08;1014.66;;;13.58;50.00
64230;BME280;50547;49.498;0.092;2023-04-20T12:02:37;1014.70;;;13.43;51.27
64230;BME280;50547;49.498;0.092;2023-04-20T12:05:06;1014.46;;;13.48;51.19
64230;BME280;50547;49.498;0.092;2023-04-20T12:07:35;1014.68;;;13.64;51.94
64230;BME280;50547;49.498;0.092;2023-04-20T12:10:06;1014.66;;;13.35;53.78
64230;BME280;50547;49.498;0.092;2023-04-20T12:12:35;1014.68;;;13.45;53.06
64230;BME280;50547;49.498;0.092;2023-04-20T12:15:05;1014.64;;;13.12;55.41
64230;BME280;50547;49.498;0.092;2023-04-20T12:17:36;1014.66;;;13.08;55.40
64230;BME280;50547;49.498;0.092;2023-04-20T12:20:06;1014.60;;;13.22;55.47
64230;BME280;50547;49.498;0.092;2023-04-20T12:22:36;1014.56;;;13.26;55.38
64230;BME280;50547;49.498;0.092;2023-04-20T12:25:06;1014.62;;;13.30;55.41
64230;BME280;50547;49.498;0.092;2023-04-20T12:27:35;1014.50;;;13.49;54.23
64230;BME280;50547;49.498;0.092;2023-04-20T12:30:06;1014.58;;;13.54;53.67
64230;BME280;50547;49.498;0.092;2023-04-20T12:32:35;1014.58;;;13.39;54.21
64230;BME280;50547;49.498;0.092;2023-04-20T12:35:05;1014.50;;;13.81;52.41
64230;BME280;50547;49.498;0.092;2023-04-20T12:37:34;1014.56;;;14.06;51.24
64230;BME280;50547;49.498;0.092;2023-04-20T12:40:04;1014.40;;;13.73;52.83
64230;BME280;50547;49.498;0.092;2023-04-20T12:42:34;1014.64;;;14.04;53.04
64230;BME280;50547;49.498;0.092;2023-04-20T12:45:03;1014.62;;;14.03;52.04
64230;BME280;50547;49.498;0.092;2023-04-20T12:47:33;1014.54;;;14.34;51.67
64230;BME280;50547;49.498;0.092;2023-04-20T12:50:02;1014.50;;;14.20;52.76
64230;BME280;50547;49.498;0.092;2023-04-20T12:52:31;1014.50;;;14.19;53.02
64230;BME280;50547;49.498;0.092;2023-04-20T12:55:01;1014.64;;;14.45;51.56
64230;BME280;50547;49.498;0.092;2023-04-20T12:57:30;1014.62;;;14.00;53.06
64230;BME280;50547;49.498;0.092;2023-04-20T12:59:59;1014.62;;;13.95;54.75
64230;BME280;50547;49.498;0.092;2023-04-20T13:02:28;1014.50;;;13.47;55.30
64230;BME280;50547;49.498;0.092;2023-04-20T13:04:57;1014.52;;;13.97;53.23
64230;BME280;50547;49.498;0.092;2023-04-20T13:07:26;1014.44;;;14.05;51.27
64230;BME280;50547;49.498;0.092;2023-04-20T13:09:55;1014.38;;;13.39;54.32
64230;BME280;50547;49.498;0.092;2023-04-20T13:12:25;1014.46;;;13.91;51.34
64230;BME280;50547;49.498;0.092;2023-04-20T13:14:54;1014.38;;;14.23;50.07
64230;BME280;50547;49.498;0.092;2023-04-20T13:17:23;1014.29;;;14.25;50.43
64230;BME280;50547;49.498;0.092;2023-04-20T13:19:52;1014.38;;;14.45;51.37
64230;BME280;50547;49.498;0.092;2023-04-20T13:22:21;1014.25;;;13.93;52.17
64230;BME280;50547;49.498;0.092;2023-04-20T13:24:51;1014.21;;;13.64;53.28
64230;BME280;50547;49.498;0.092;2023-04-20T13:27:20;1014.27;;;13.67;52.58